createdAt,value
2017-09-17T00:00:58.523Z,67.98
2017-09-17T00:03:26.444Z,67.99
2017-09-17T00:05:53.591Z,67.97
2017-09-17T00:08:20.748Z,67.95
2017-09-17T00:10:47.920Z,67.95
2017-09-17T00:13:16.200Z,67.95
2017-09-17T00:15:43.355Z,67.97
2017-09-17T00:18:10.515Z,68.00
2017-09-17T00:20:37.668Z,68.02
2017-09-17T00:23:04.823Z,68.02
2017-09-17T00:25:31.976Z,68.01
2017-09-17T00:27:59.136Z,68.03
2017-09-17T00:30:26.294Z,68.03
2017-09-17T00:32:53.464Z,68.05
2017-09-17T00:35:20.614Z,68.06
2017-09-17T00:37:47.783Z,68.07
2017-09-17T00:40:14.949Z,68.11
2017-09-17T00:42:42.107Z,68.12
2017-09-17T00:45:09.260Z,68.12
2017-09-17T00:47:36.416Z,68.14
2017-09-17T00:50:03.584Z,68.14
2017-09-17T00:52:30.763Z,68.14
2017-09-17T00:54:57.947Z,68.13
2017-09-17T00:57:25.096Z,68.14
2017-09-17T00:59:52.249Z,68.17
2017-09-17T01:02:19.408Z,68.16
2017-09-17T01:04:46.558Z,68.15
2017-09-17T01:07:13.717Z,68.15
2017-09-17T01:09:41.640Z,68.14
2017-09-17T01:12:08.792Z,68.15
2017-09-17T01:14:35.945Z,68.15
2017-09-17T01:17:03.097Z,68.17
2017-09-17T01:19:30.256Z,68.16
2017-09-17T01:21:57.411Z,68.18
2017-09-17T01:24:24.580Z,68.16
2017-09-17T01:26:51.736Z,68.18
2017-09-17T01:29:18.892Z,68.17
2017-09-17T01:31:46.048Z,68.16
2017-09-17T01:34:13.308Z,68.17
2017-09-17T01:36:40.474Z,68.16
2017-09-17T01:39:07.644Z,68.18
2017-09-17T01:41:34.796Z,68.21
2017-09-17T01:44:01.947Z,68.21
2017-09-17T01:46:29.104Z,68.21
2017-09-17T01:48:56.255Z,68.21
2017-09-17T01:51:23.409Z,68.21
2017-09-17T01:53:50.567Z,68.22
2017-09-17T01:56:17.736Z,68.23
2017-09-17T01:58:44.895Z,68.23
2017-09-17T02:01:12.051Z,68.23
2017-09-17T02:03:39.207Z,68.23
2017-09-17T02:06:06.364Z,68.20
2017-09-17T02:08:33.515Z,68.23
2017-09-17T02:11:00.672Z,68.23
2017-09-17T02:13:27.827Z,68.24
2017-09-17T02:15:54.979Z,68.26
2017-09-17T02:18:22.127Z,68.26
2017-09-17T02:20:49.282Z,68.28
2017-09-17T02:23:16.443Z,68.28
2017-09-17T02:25:43.601Z,68.26
2017-09-17T02:28:10.751Z,68.28
2017-09-17T02:30:37.903Z,68.28
2017-09-17T02:33:05.052Z,68.29
2017-09-17T02:35:32.212Z,68.29
2017-09-17T02:37:59.368Z,68.30
2017-09-17T02:40:26.526Z,68.30
2017-09-17T02:42:53.691Z,68.30
2017-09-17T02:45:20.852Z,68.30
2017-09-17T02:47:48.004Z,68.30
2017-09-17T02:50:15.177Z,68.30
2017-09-17T02:52:42.340Z,68.31
2017-09-17T02:55:09.496Z,68.31
2017-09-17T02:57:36.648Z,68.31
2017-09-17T03:00:03.808Z,68.30
2017-09-17T03:02:30.967Z,68.30
2017-09-17T03:04:58.133Z,68.31
2017-09-17T03:07:25.284Z,68.32
2017-09-17T03:09:52.436Z,68.33
2017-09-17T03:12:19.595Z,68.34
2017-09-17T03:14:47.513Z,68.34
2017-09-17T03:17:14.664Z,68.34
2017-09-17T03:19:41.816Z,68.34
2017-09-17T03:22:08.976Z,68.34
2017-09-17T03:24:36.128Z,68.34
2017-09-17T03:27:03.279Z,68.35
2017-09-17T03:29:30.440Z,68.36
2017-09-17T03:31:57.591Z,68.38
2017-09-17T03:34:24.752Z,68.39
2017-09-17T03:36:51.915Z,68.40
2017-09-17T03:39:19.068Z,68.39
2017-09-17T03:41:46.219Z,68.40
2017-09-17T03:44:13.388Z,68.39
2017-09-17T03:46:40.556Z,68.39
2017-09-17T03:49:07.733Z,68.39
2017-09-17T03:51:34.887Z,68.39
2017-09-17T03:54:03.034Z,68.39
2017-09-17T03:56:30.189Z,68.40
2017-09-17T03:58:57.340Z,68.41
2017-09-17T04:01:24.509Z,68.41
2017-09-17T04:03:51.668Z,68.41
2017-09-17T04:06:18.819Z,68.42
2017-09-17T04:08:45.983Z,68.42
2017-09-17T04:11:13.136Z,68.42
2017-09-17T04:13:40.296Z,68.43
2017-09-17T04:16:07.460Z,68.43
2017-09-17T04:18:34.623Z,68.43
2017-09-17T04:21:01.774Z,68.43
2017-09-17T04:23:28.928Z,68.43
2017-09-17T04:25:56.084Z,68.44
2017-09-17T04:28:23.240Z,68.44
2017-09-17T04:30:50.387Z,68.44
2017-09-17T04:33:17.564Z,68.44
2017-09-17T04:35:44.731Z,68.44
2017-09-17T04:38:11.888Z,68.45
2017-09-17T04:40:39.048Z,68.45
2017-09-17T04:43:06.217Z,68.45
2017-09-17T04:45:33.372Z,68.46
2017-09-17T04:48:00.528Z,68.47
2017-09-17T04:50:27.720Z,68.47
2017-09-17T04:52:54.911Z,68.46
2017-09-17T04:55:22.076Z,68.48
2017-09-17T04:57:49.227Z,68.49
2017-09-17T05:00:16.380Z,68.49
2017-09-17T05:02:43.552Z,68.50
2017-09-17T05:05:10.716Z,68.50
2017-09-17T05:07:37.867Z,68.51
2017-09-17T05:10:05.025Z,68.52
2017-09-17T05:12:32.201Z,68.53
2017-09-17T05:14:59.355Z,68.53
2017-09-17T05:17:26.512Z,68.53
2017-09-17T05:19:53.675Z,68.54
2017-09-17T05:22:20.841Z,68.54
2017-09-17T05:24:48.169Z,68.55
2017-09-17T05:27:15.331Z,68.55
2017-09-17T05:29:42.483Z,68.58
2017-09-17T05:32:09.636Z,68.58
2017-09-17T05:34:36.829Z,68.59
2017-09-17T05:37:03.992Z,68.61
2017-09-17T05:39:31.160Z,68.60
2017-09-17T05:41:58.320Z,68.59
2017-09-17T05:44:25.480Z,68.60
2017-09-17T05:46:52.635Z,68.59
2017-09-17T05:49:19.789Z,68.60
2017-09-17T05:51:46.941Z,68.61
2017-09-17T05:54:14.112Z,68.61
2017-09-17T05:56:41.280Z,68.62
2017-09-17T05:59:08.431Z,68.62
2017-09-17T06:01:35.581Z,68.62
2017-09-17T06:04:02.740Z,68.62
2017-09-17T06:06:29.892Z,68.63
2017-09-17T06:08:57.172Z,68.63
2017-09-17T06:11:24.329Z,68.62
2017-09-17T06:13:51.492Z,68.64
2017-09-17T06:16:18.672Z,68.65
2017-09-17T06:18:45.823Z,68.66
2017-09-17T06:21:12.980Z,68.67
2017-09-17T06:23:40.987Z,68.67
2017-09-17T06:26:08.916Z,68.67
2017-09-17T06:28:36.067Z,68.67
2017-09-17T06:31:03.221Z,68.69
2017-09-17T06:33:30.372Z,68.69
2017-09-17T06:35:57.536Z,68.71
2017-09-17T06:38:24.692Z,68.72
2017-09-17T06:40:51.844Z,68.74
2017-09-17T06:43:19.005Z,68.73
2017-09-17T06:45:46.188Z,68.74
2017-09-17T06:48:13.352Z,68.75
2017-09-17T06:50:40.504Z,68.76
2017-09-17T06:53:07.665Z,68.76
2017-09-17T06:55:34.823Z,68.75
2017-09-17T06:58:01.978Z,68.76
2017-09-17T07:00:29.140Z,68.77
2017-09-17T07:02:56.311Z,68.79
2017-09-17T07:05:24.383Z,68.79
2017-09-17T07:07:51.547Z,68.79
2017-09-17T07:10:18.715Z,68.80
2017-09-17T07:12:45.876Z,68.80
2017-09-17T07:15:13.032Z,68.79
2017-09-17T07:17:40.187Z,68.80
2017-09-17T07:20:07.344Z,68.80
2017-09-17T07:22:34.509Z,68.79
2017-09-17T07:25:01.663Z,68.80
2017-09-17T07:27:28.816Z,68.80
2017-09-17T07:29:56.189Z,68.80
2017-09-17T07:32:23.375Z,68.81
2017-09-17T07:34:50.531Z,68.81
2017-09-17T07:37:17.692Z,68.81
2017-09-17T07:39:44.852Z,68.80
2017-09-17T07:42:12.013Z,68.80
2017-09-17T07:44:39.939Z,68.81
2017-09-17T07:47:07.096Z,68.81
2017-09-17T07:49:34.263Z,68.81
2017-09-17T07:52:01.421Z,68.81
2017-09-17T07:54:28.584Z,68.83
2017-09-17T07:56:55.744Z,68.86
2017-09-17T07:59:23.680Z,68.86
2017-09-17T08:01:50.863Z,68.91
2017-09-17T08:04:18.021Z,68.92
2017-09-17T08:06:45.180Z,68.92
2017-09-17T08:09:12.344Z,68.92
2017-09-17T08:11:39.504Z,68.91
2017-09-17T08:14:06.753Z,68.91
2017-09-17T08:16:33.912Z,68.93
2017-09-17T08:19:01.069Z,68.93
2017-09-17T08:21:28.223Z,68.95
2017-09-17T08:23:55.379Z,68.96
2017-09-17T08:26:22.557Z,68.97
2017-09-17T08:28:49.716Z,68.97
2017-09-17T08:31:16.875Z,68.98
2017-09-17T08:33:44.045Z,68.99
2017-09-17T08:36:11.213Z,69.00
2017-09-17T08:38:38.375Z,69.00
2017-09-17T08:41:05.537Z,68.99
2017-09-17T08:43:32.704Z,68.98
2017-09-17T08:45:59.867Z,69.01
2017-09-17T08:48:27.024Z,69.01
2017-09-17T08:50:54.183Z,69.13
2017-09-17T08:53:21.345Z,69.09
2017-09-17T08:55:48.504Z,69.08
2017-09-17T08:58:15.668Z,69.11
2017-09-17T09:00:42.823Z,69.12
2017-09-17T09:03:09.984Z,69.12
2017-09-17T09:05:37.152Z,69.12
2017-09-17T09:08:04.317Z,69.12
2017-09-17T09:10:32.244Z,69.12
2017-09-17T09:12:59.403Z,69.14
2017-09-17T09:15:26.572Z,69.13
2017-09-17T09:17:53.733Z,69.13
2017-09-17T09:20:20.892Z,69.12
2017-09-17T09:22:48.056Z,69.13
2017-09-17T09:25:15.232Z,69.12
2017-09-17T09:27:42.387Z,69.14
2017-09-17T09:30:09.551Z,69.14
2017-09-17T09:32:36.711Z,69.14
2017-09-17T09:35:03.880Z,69.14
2017-09-17T09:37:31.036Z,69.14
2017-09-17T09:39:58.960Z,69.14
2017-09-17T09:42:26.129Z,69.14
2017-09-17T09:44:53.292Z,69.14
2017-09-17T09:47:20.455Z,69.15
2017-09-17T09:49:47.611Z,69.16
2017-09-17T09:52:14.796Z,69.19
2017-09-17T09:54:41.959Z,69.30
2017-09-17T09:57:09.116Z,69.33
2017-09-17T09:59:36.276Z,69.34
2017-09-17T10:02:03.439Z,69.30
2017-09-17T10:04:30.604Z,69.29
2017-09-17T10:06:57.763Z,69.29
2017-09-17T10:09:25.812Z,69.30
2017-09-17T10:11:52.975Z,69.30
2017-09-17T10:14:20.136Z,69.31
2017-09-17T10:16:48.059Z,69.32
2017-09-17T10:19:15.248Z,69.32
2017-09-17T10:21:42.412Z,69.32
2017-09-17T10:24:09.567Z,69.41
2017-09-17T10:26:36.732Z,69.37
2017-09-17T10:29:03.891Z,69.35
2017-09-17T10:31:31.061Z,69.36
2017-09-17T10:33:58.289Z,69.37
2017-09-17T10:36:25.795Z,69.48
2017-09-17T10:38:52.956Z,69.64
2017-09-17T10:41:20.116Z,69.64
2017-09-17T10:43:47.280Z,70.01
2017-09-17T10:46:14.446Z,69.94
2017-09-17T10:48:41.920Z,70.05
2017-09-17T10:51:09.091Z,70.03
2017-09-17T10:53:36.252Z,69.96
2017-09-17T10:56:03.967Z,69.91
2017-09-17T10:58:32.434Z,69.84
2017-09-17T11:01:00.942Z,69.81
2017-09-17T11:03:28.344Z,69.74
2017-09-17T11:05:55.536Z,69.72
2017-09-17T11:08:22.703Z,69.90
2017-09-17T11:10:49.865Z,69.96
2017-09-17T11:13:17.032Z,69.94
2017-09-17T11:15:44.192Z,69.91
2017-09-17T11:18:11.364Z,69.88
2017-09-17T11:20:38.528Z,69.80
2017-09-17T11:23:05.697Z,69.77
2017-09-17T11:25:32.865Z,69.76
2017-09-17T11:28:00.180Z,69.74
2017-09-17T11:30:27.348Z,69.72
2017-09-17T11:32:54.525Z,69.75
2017-09-17T11:35:21.928Z,69.71
2017-09-17T11:37:49.875Z,69.70
2017-09-17T11:40:17.032Z,69.68
2017-09-17T11:42:44.200Z,69.67
2017-09-17T11:45:11.370Z,69.68
2017-09-17T11:47:38.545Z,69.68
2017-09-17T11:50:05.823Z,69.68
2017-09-17T11:52:32.992Z,69.68
2017-09-17T11:55:00.169Z,69.67
2017-09-17T11:57:27.332Z,69.67
2017-09-17T11:59:54.689Z,69.68
2017-09-17T12:02:22.558Z,69.68
2017-09-17T12:04:50.426Z,69.68
2017-09-17T12:07:17.620Z,69.69
2017-09-17T12:09:44.784Z,69.70
2017-09-17T12:12:12.927Z,69.68
2017-09-17T12:14:40.271Z,69.68
2017-09-17T12:17:07.934Z,69.70
2017-09-17T12:19:35.251Z,69.68
2017-09-17T12:22:03.100Z,69.70
2017-09-17T12:24:30.273Z,69.70
2017-09-17T12:26:57.437Z,69.70
2017-09-17T12:29:24.611Z,69.70
2017-09-17T12:31:51.768Z,69.70
2017-09-17T12:34:18.932Z,69.70
2017-09-17T12:36:46.091Z,69.70
2017-09-17T12:39:13.318Z,69.73
2017-09-17T12:41:40.525Z,69.71
2017-09-17T12:44:07.902Z,69.70
2017-09-17T12:46:35.072Z,69.71
2017-09-17T12:49:02.237Z,69.71
2017-09-17T12:51:29.418Z,69.70
2017-09-17T12:53:57.353Z,69.71
2017-09-17T12:56:24.541Z,69.71
2017-09-17T12:58:51.718Z,69.71
2017-09-17T13:01:18.892Z,69.71
2017-09-17T13:03:46.400Z,69.71
2017-09-17T13:06:14.360Z,69.71
2017-09-17T13:08:41.533Z,69.72
2017-09-17T13:11:08.691Z,69.72
2017-09-17T13:13:35.861Z,69.71
2017-09-17T13:16:03.092Z,69.71
2017-09-17T13:18:30.281Z,69.71
2017-09-17T13:20:57.613Z,69.72
2017-09-17T13:23:24.771Z,69.71
2017-09-17T13:25:51.936Z,69.71
2017-09-17T13:28:19.096Z,69.72
2017-09-17T13:30:46.260Z,69.72
2017-09-17T13:33:13.444Z,69.72
2017-09-17T13:35:40.608Z,69.73
2017-09-17T13:38:07.799Z,69.72
2017-09-17T13:40:35.513Z,69.72
2017-09-17T13:43:02.713Z,69.73
2017-09-17T13:45:31.185Z,69.74
2017-09-17T13:47:58.381Z,69.74
2017-09-17T13:50:25.541Z,69.74
2017-09-17T13:52:52.703Z,69.74
2017-09-17T13:55:19.936Z,69.74
2017-09-17T13:57:47.119Z,69.73
2017-09-17T14:00:14.320Z,69.74
2017-09-17T14:02:56.431Z,69.74
2017-09-17T14:05:30.008Z,69.74
2017-09-17T14:08:00.169Z,69.74
2017-09-17T14:10:40.135Z,69.74
2017-09-17T14:13:07.359Z,69.73
2017-09-17T14:15:34.552Z,69.74
2017-09-17T14:18:01.740Z,69.74
2017-09-17T14:20:28.924Z,69.74
2017-09-17T14:22:56.368Z,69.75
2017-09-17T14:25:24.302Z,69.74
2017-09-17T14:27:51.609Z,69.74
2017-09-17T14:30:18.776Z,69.74
2017-09-17T14:32:46.261Z,69.74
2017-09-17T14:35:13.659Z,69.74
2017-09-17T14:37:40.834Z,69.75
2017-09-17T14:40:07.997Z,69.75
2017-09-17T14:42:35.187Z,69.75
2017-09-17T14:45:02.365Z,69.76
2017-09-17T14:47:29.734Z,69.75
2017-09-17T14:49:57.495Z,69.77
2017-09-17T14:52:24.953Z,69.76
2017-09-17T14:54:52.413Z,69.76
2017-09-17T14:57:19.886Z,69.76
2017-09-17T14:59:47.635Z,69.77
2017-09-17T15:02:14.829Z,69.78
2017-09-17T15:04:43.467Z,69.78
2017-09-17T15:07:10.641Z,69.78
2017-09-17T15:09:37.947Z,69.79
2017-09-17T15:12:05.136Z,69.85
2017-09-17T15:14:32.325Z,69.67
2017-09-17T15:16:59.974Z,69.71
2017-09-17T15:19:27.442Z,69.76
2017-09-17T15:21:54.745Z,69.76
2017-09-17T15:24:22.188Z,69.81
2017-09-17T15:26:49.843Z,69.95
2017-09-17T15:29:17.029Z,70.03
2017-09-17T15:31:44.186Z,70.06
2017-09-17T15:34:11.622Z,70.07
2017-09-17T15:36:38.937Z,70.07
2017-09-17T15:39:06.112Z,70.04
2017-09-17T15:41:33.792Z,70.04
2017-09-17T15:44:00.976Z,70.03
2017-09-17T15:46:28.606Z,70.02
2017-09-17T15:48:55.781Z,70.02
2017-09-17T15:51:23.421Z,70.02
2017-09-17T15:53:50.821Z,70.02
2017-09-17T15:56:18.535Z,70.02
2017-09-17T15:58:45.729Z,70.01
2017-09-17T16:01:13.261Z,70.01
2017-09-17T16:03:40.636Z,70.01
2017-09-17T16:06:07.836Z,70.01
2017-09-17T16:08:35.515Z,70.02
2017-09-17T16:11:02.689Z,70.01
2017-09-17T16:13:29.852Z,70.01
2017-09-17T16:15:57.669Z,70.01
2017-09-17T16:18:25.106Z,70.01
2017-09-17T16:20:52.801Z,70.01
2017-09-17T16:23:20.289Z,70.01
2017-09-17T16:25:47.492Z,70.00
2017-09-17T16:28:14.728Z,70.00
2017-09-17T16:30:42.629Z,70.00
2017-09-17T16:33:09.836Z,70.00
2017-09-17T16:35:37.544Z,70.00
2017-09-17T16:38:04.738Z,70.00
2017-09-17T16:40:32.363Z,70.00
2017-09-17T16:42:59.544Z,70.00
2017-09-17T16:45:26.730Z,70.00
2017-09-17T16:47:54.723Z,69.98
2017-09-17T16:50:22.482Z,69.98
2017-09-17T16:52:50.150Z,69.98
2017-09-17T16:55:17.361Z,69.98
2017-09-17T16:57:44.885Z,69.97
2017-09-17T17:09:52.594Z,69.97
2017-09-17T17:12:20.387Z,69.97
2017-09-17T17:14:47.633Z,69.97
2017-09-17T17:17:15.271Z,69.97
2017-09-17T17:19:42.480Z,69.97
2017-09-17T17:22:10.206Z,69.97
2017-09-17T17:24:37.999Z,69.97
2017-09-17T17:27:05.740Z,69.97
2017-09-17T17:29:32.933Z,69.98
2017-09-17T17:32:00.123Z,69.97
2017-09-17T17:34:28.443Z,69.97
2017-09-17T17:36:56.209Z,69.98
2017-09-17T17:39:23.805Z,69.97
2017-09-17T17:41:51.320Z,69.97
2017-09-17T17:44:18.671Z,69.98
2017-09-17T17:46:45.863Z,69.98
2017-09-17T17:49:13.371Z,69.98
2017-09-17T17:51:40.558Z,69.98
2017-09-17T17:54:08.706Z,69.98
2017-09-17T17:56:36.263Z,69.98
2017-09-17T17:59:04.415Z,69.98
2017-09-17T18:01:31.773Z,69.98
2017-09-17T18:03:59.475Z,69.98
2017-09-17T18:06:26.688Z,70.00
2017-09-17T18:08:53.873Z,70.00
2017-09-17T18:11:22.476Z,70.01
2017-09-17T18:13:50.281Z,70.02
2017-09-17T18:16:17.488Z,70.02
2017-09-17T18:18:45.029Z,70.03
2017-09-17T18:21:12.257Z,70.04
2017-09-17T18:23:41.238Z,70.04
2017-09-17T18:26:08.442Z,70.05
2017-09-17T18:28:36.509Z,70.05
2017-09-17T18:31:04.142Z,70.06
2017-09-17T18:33:31.483Z,70.06
2017-09-17T18:35:59.278Z,70.06
2017-09-17T18:38:27.317Z,70.07
2017-09-17T18:40:54.845Z,70.07
2017-09-17T18:43:22.029Z,70.09
2017-09-17T18:45:50.420Z,70.09
2017-09-17T18:48:17.652Z,70.10
2017-09-17T18:50:50.767Z,70.10
2017-09-17T18:53:18.395Z,70.11
2017-09-17T18:55:45.990Z,70.10
2017-09-17T18:58:13.197Z,70.21
2017-09-17T19:00:40.822Z,70.17
2017-09-17T19:03:08.361Z,70.18
2017-09-17T19:05:36.032Z,70.18
2017-09-17T19:08:03.700Z,70.17
2017-09-17T19:10:31.166Z,70.16
2017-09-17T19:12:58.394Z,70.16
2017-09-17T19:15:26.009Z,70.17
2017-09-17T19:17:53.464Z,70.16
2017-09-17T19:20:21.862Z,70.16
2017-09-17T19:22:49.249Z,70.16
2017-09-17T19:25:16.792Z,70.17
2017-09-17T19:27:46.494Z,70.17
2017-09-17T19:30:13.717Z,70.16
2017-09-17T19:32:41.536Z,70.16
2017-09-17T19:35:08.732Z,70.18
2017-09-17T19:37:36.084Z,70.17
2017-09-17T19:40:03.801Z,70.17
2017-09-17T19:42:31.672Z,70.16
2017-09-17T19:44:59.235Z,70.17
2017-09-17T19:47:26.907Z,70.17
2017-09-17T19:49:54.245Z,70.18
2017-09-17T19:52:21.433Z,70.17
2017-09-17T19:54:49.178Z,70.17
2017-09-17T19:57:16.381Z,70.17
2017-09-17T19:59:44.794Z,70.17
2017-09-17T20:02:12.868Z,70.17
2017-09-17T20:04:40.447Z,70.19
2017-09-17T20:07:07.854Z,70.19
2017-09-17T20:09:35.074Z,70.19
2017-09-17T20:12:02.276Z,70.19
2017-09-17T20:14:29.481Z,70.19
2017-09-17T20:16:56.860Z,70.19
2017-09-17T20:19:24.033Z,70.19
2017-09-17T20:21:51.395Z,70.19
2017-09-17T20:24:18.577Z,70.20
2017-09-17T20:26:46.409Z,70.20
2017-09-17T20:29:14.006Z,70.20
2017-09-17T20:31:41.189Z,70.19
2017-09-17T20:34:08.780Z,70.20
2017-09-17T20:36:36.002Z,70.19
2017-09-17T20:39:03.961Z,70.19
2017-09-17T20:41:31.176Z,70.21
2017-09-17T20:43:59.383Z,70.22
2017-09-17T20:46:26.620Z,70.22
2017-09-17T20:48:54.668Z,70.20
2017-09-17T20:51:22.101Z,70.20
2017-09-17T20:53:49.825Z,70.20
2017-09-17T20:56:17.337Z,70.20
2017-09-17T20:58:44.514Z,70.20
2017-09-17T21:01:12.271Z,70.20
2017-09-17T21:03:39.655Z,70.19
2017-09-17T21:06:07.417Z,70.20
2017-09-17T21:08:35.022Z,70.20
2017-09-17T21:11:02.200Z,70.21
2017-09-17T21:13:29.782Z,70.20
2017-09-17T21:15:57.817Z,70.21
2017-09-17T21:18:25.277Z,70.21
2017-09-17T21:20:52.449Z,70.20
2017-09-17T21:23:19.612Z,70.20
2017-09-17T21:25:46.776Z,70.20
2017-09-17T21:28:14.411Z,70.20
2017-09-17T21:30:41.637Z,70.20
2017-09-17T21:33:08.897Z,70.20
2017-09-17T21:35:36.448Z,70.20
2017-09-17T21:38:03.702Z,70.20
2017-09-17T21:40:31.373Z,70.19
2017-09-17T21:42:58.745Z,70.19
2017-09-17T21:45:26.001Z,70.20
2017-09-17T21:47:53.224Z,70.19
2017-09-17T21:50:20.761Z,70.18
2017-09-17T21:52:47.924Z,70.17
2017-09-17T21:55:15.084Z,70.19
2017-09-17T21:57:42.257Z,70.19
2017-09-17T22:00:09.588Z,70.22
2017-09-17T22:02:37.353Z,70.21
2017-09-17T22:05:04.797Z,70.05
2017-09-17T22:07:32.253Z,69.69
2017-09-17T22:10:00.505Z,69.20
2017-09-17T22:12:27.855Z,68.77
2017-09-17T22:14:55.254Z,68.50
2017-09-17T22:17:22.808Z,68.22
2017-09-17T22:19:50.155Z,67.95
2017-09-17T22:22:17.342Z,67.75
2017-09-17T22:24:44.544Z,67.30
2017-09-17T22:27:11.852Z,67.08
2017-09-17T22:29:39.021Z,66.88
2017-09-17T22:32:06.207Z,66.75
2017-09-17T22:34:34.352Z,66.48
2017-09-17T22:37:01.513Z,66.20
2017-09-17T22:39:28.905Z,66.02
2017-09-17T22:41:56.364Z,65.62
2017-09-17T22:44:23.821Z,65.34
2017-09-17T22:46:51.140Z,65.05
2017-09-17T22:49:18.433Z,64.86
2017-09-17T22:51:45.871Z,64.74
2017-09-17T22:54:13.036Z,64.46
2017-09-17T22:56:40.503Z,64.33
2017-09-17T22:59:07.932Z,64.16
2017-09-17T23:01:35.099Z,64.04
2017-09-17T23:04:02.535Z,63.88
2017-09-17T23:06:30.493Z,63.74
2017-09-17T23:08:58.008Z,63.55
2017-09-17T23:11:25.172Z,63.54
2017-09-17T23:13:52.555Z,63.45
2017-09-17T23:16:19.887Z,63.38
2017-09-17T23:18:47.047Z,63.19
2017-09-17T23:21:14.640Z,63.16
2017-09-17T23:23:42.075Z,62.99
2017-09-17T23:26:09.269Z,62.64
2017-09-17T23:28:36.448Z,62.64
2017-09-17T23:31:03.826Z,62.36
2017-09-17T23:33:30.991Z,61.98
2017-09-17T23:35:58.392Z,62.02
2017-09-17T23:38:26.037Z,61.92
2017-09-17T23:40:53.499Z,61.71
2017-09-17T23:43:21.020Z,61.57
2017-09-17T23:45:48.436Z,61.70
2017-09-17T23:48:17.097Z,61.87
2017-09-17T23:50:44.663Z,61.88
2017-09-17T23:53:12.009Z,62.40
2017-09-17T23:55:39.475Z,62.56
2017-09-17T23:58:06.777Z,62.74
